Terminal Aerodrome Forecast
Issued by NWS

Home | Current Version | Previous Version | Text Only | Print | Product List | Glossary On
Versions: 1 2 3 4 5 6 7 8 9 10 11 12 13 14 15 16 17 18 19 20 21 22 23 24 25 26 27 28 29 30
000
FTUS46 KLOX 231400 AAA
TAFLAX
TAF AMD
KLAX 231454Z 2315/2418 08003KT P6SM FEW015
     FM231700 26008KT P6SM SKC
     FM232000 27015KT P6SM SKC
     FM240200 26008KT P6SM SKC
     FM240700 VRB03KT P6SM SKC
     FM241200 VRB03KT P6SM SCT006=

USA.gov is the U.S. government's official web portal to all federal, state and local government web resources and services.